Time;durP1;ratioP1;P1;durP2;ratioP2;P2;SDS_P1;SDS_P2;PMS_P1;PMS_P2;Temp;Humidity;BMP_temperature;BMP_pressure;BME280_temperature;BME280_humidity;BME280_pressure;Samples;Min_cycle;Max_cycle;Signal;HPM_P1;HPM_P2
2022/03/02 00:02:04;;;;;;;11.88;3.72;;;;;;;5.60;100.00;102429.97;5088809;28;20040;-87
2022/03/02 00:04:31;;;;;;;10.63;2.90;;;;;;;5.38;100.00;102422.78;5090195;28;20478;-87
2022/03/02 00:06:57;;;;;;;12.32;3.83;;;;;;;5.58;100.00;102429.06;5088918;28;20052;-87
2022/03/02 00:09:24;;;;;;;17.65;4.15;;;;;;;5.71;100.00;102435.25;5091800;28;20474;-87
2022/03/02 00:11:51;;;;;;;13.13;4.05;;;;;;;5.70;100.00;102437.00;5090438;28;20050;-87
2022/03/02 00:14:18;;;;;;;12.73;4.22;;;;;;;5.44;100.00;102415.06;5089558;28;20058;-87
2022/03/02 00:16:44;;;;;;;11.90;3.00;;;;;;;5.74;100.00;102429.22;5090953;28;20549;-87
2022/03/02 00:19:11;;;;;;;14.05;4.00;;;;;;;5.13;100.00;102366.28;5093948;28;20044;-87
2022/03/02 00:21:38;;;;;;;10.95;3.85;;;;;;;5.53;100.00;102406.50;5093063;28;20058;-87
2022/03/02 00:24:05;;;;;;;11.05;3.88;;;;;;;5.31;100.00;102359.50;5095242;28;20048;-87
2022/03/02 00:26:33;;;;;;;10.65;3.50;;;;;;;5.67;100.00;102390.19;5093217;28;20052;-87
2022/03/02 00:29:00;;;;;;;14.35;3.70;;;;;;;5.49;100.00;102375.28;5094116;28;20541;-87
2022/03/02 00:31:28;;;;;;;10.40;3.83;;;;;;;5.66;100.00;102406.63;5092595;28;20067;-86
2022/03/02 00:33:55;;;;;;;8.55;2.80;;;;;;;5.75;100.00;102394.56;5093486;28;20051;-87
2022/03/02 00:36:22;;;;;;;11.60;3.08;;;;;;;5.87;100.00;102394.69;5094251;28;20048;-87
2022/03/02 00:38:49;;;;;;;11.77;3.47;;;;;;;5.86;100.00;102398.13;5094725;28;20139;-88
2022/03/02 00:41:16;;;;;;;12.68;3.80;;;;;;;5.97;100.00;102367.06;5093941;28;20131;-87
2022/03/02 00:43:43;;;;;;;7.57;2.50;;;;;;;5.98;100.00;102402.59;5094516;28;20570;-88
2022/03/02 00:46:09;;;;;;;12.57;3.03;;;;;;;6.06;100.00;102395.75;5111181;28;20696;-89
2022/03/02 00:48:37;;;;;;;9.90;3.78;;;;;;;5.94;100.00;102393.88;5094482;28;20727;-88
2022/03/02 00:51:04;;;;;;;13.70;3.45;;;;;;;6.15;100.00;102392.34;5092652;28;20044;-88
2022/03/02 00:53:31;;;;;;;10.02;3.00;;;;;;;5.93;100.00;102380.84;5093814;28;20401;-88
2022/03/02 00:55:58;;;;;;;15.23;3.08;;;;;;;5.95;100.00;102369.63;5093721;28;20230;-88
2022/03/02 00:58:25;;;;;;;9.13;2.63;;;;;;;5.85;100.00;102347.00;5094084;28;20055;-88
2022/03/02 01:00:52;;;;;;;9.10;2.70;;;;;;;6.11;100.00;102374.97;5106955;28;20054;-88
2022/03/02 01:03:19;;;;;;;9.70;2.40;;;;;;;5.97;100.00;102354.09;5093956;28;20056;-88
2022/03/02 01:05:45;;;;;;;12.52;3.88;;;;;;;6.04;100.00;102376.66;5094871;28;20058;-88
2022/03/02 01:08:12;;;;;;;10.20;3.15;;;;;;;5.92;100.00;102379.13;5079544;28;20421;-89
2022/03/02 01:10:39;;;;;;;15.10;3.47;;;;;;;6.01;100.00;102384.44;5081703;28;20046;-88
2022/03/02 01:13:06;;;;;;;10.70;3.45;;;;;;;6.08;100.00;102370.63;5094393;28;20405;-89
2022/03/02 01:15:33;;;;;;;12.68;3.08;;;;;;;5.93;100.00;102379.13;5094947;28;20044;-89
2022/03/02 01:17:59;;;;;;;12.18;3.05;;;;;;;6.08;100.00;102376.69;5093755;28;20067;-88
2022/03/02 01:20:26;;;;;;;13.68;2.67;;;;;;;5.95;100.00;102385.22;5090621;28;20048;-89
2022/03/02 01:22:53;;;;;;;11.23;3.28;;;;;;;5.99;100.00;102378.34;5093853;28;20488;-88
2022/03/02 01:25:20;;;;;;;10.38;2.60;;;;;;;5.96;100.00;102383.53;5093052;28;20550;-88
2022/03/02 01:27:47;;;;;;;13.35;3.13;;;;;;;6.04;100.00;102390.53;5108912;28;20098;-87
2022/03/02 01:30:14;;;;;;;10.55;3.17;;;;;;;5.80;100.00;102339.16;5092978;28;20405;-88
2022/03/02 01:32:41;;;;;;;9.43;2.10;;;;;;;5.66;100.00;102344.25;5073276;28;20047;-88
2022/03/02 01:35:11;;;;;;;10.90;3.30;;;;;;;5.84;100.00;102372.16;5076819;28;20409;-88
2022/03/02 01:37:38;;;;;;;11.13;2.85;;;;;;;6.03;100.00;102377.50;5082782;28;20402;-88
2022/03/02 01:40:09;;;;;;;16.33;3.95;;;;;;;6.14;100.00;102377.59;5092452;28;20050;-88
2022/03/02 01:42:41;;;;;;;19.65;3.83;;;;;;;6.38;100.00;102384.69;5093606;28;20448;-88
2022/03/02 01:45:10;;;;;;;9.80;2.63;;;;;;;6.24;100.00;102362.06;5094192;28;20130;-87
2022/03/02 01:47:38;;;;;;;11.27;2.75;;;;;;;6.10;100.00;102362.84;5093698;28;20048;-89
2022/03/02 01:50:10;;;;;;;9.02;3.03;;;;;;;6.16;100.00;102379.34;5093974;28;20474;-88
2022/03/02 01:52:37;;;;;;;7.57;2.45;;;;;;;6.06;100.00;102365.41;5093406;28;20047;-88
2022/03/02 01:55:06;;;;;;;8.73;2.97;;;;;;;6.15;100.00;102377.59;5093038;28;20048;-87
2022/03/02 01:57:33;;;;;;;11.68;2.42;;;;;;;6.08;100.00;102375.81;5092391;28;20054;-88
2022/03/02 02:00:02;;;;;;;12.07;2.90;;;;;;;5.83;100.00;102353.94;5090093;28;20059;-87
2022/03/02 02:02:29;;;;;;;10.07;2.90;;;;;;;5.90;100.00;102369.59;5093954;28;20044;-88
2022/03/02 02:04:56;;;;;;;10.98;2.58;;;;;;;5.63;100.00;102353.75;5092657;28;20075;-87
2022/03/02 02:07:25;;;;;;;11.43;3.38;;;;;;;5.59;100.00;102362.38;5092684;28;20056;-87
2022/03/02 02:09:52;;;;;;;6.32;2.50;;;;;;;5.62;100.00;102357.22;5094118;28;20397;-88
2022/03/02 02:12:19;;;;;;;8.50;2.58;;;;;;;5.67;100.00;102347.75;5088435;28;20044;-88
2022/03/02 02:14:46;;;;;;;9.38;2.65;;;;;;;5.51;100.00;102341.53;5092431;28;20138;-88
2022/03/02 02:17:12;;;;;;;8.73;2.45;;;;;;;5.45;100.00;102324.16;5092203;28;20048;-88
2022/03/02 02:19:40;;;;;;;10.85;3.40;;;;;;;5.51;100.00;102338.94;5093585;28;20056;-90
2022/03/02 02:22:07;;;;;;;9.05;2.70;;;;;;;5.53;100.00;102339.81;5108902;28;20429;-87
2022/03/02 02:24:34;;;;;;;10.68;3.60;;;;;;;5.80;100.00;102352.16;5093675;28;20055;-87
2022/03/02 02:27:01;;;;;;;8.00;2.45;;;;;;;5.73;100.00;102345.19;5092516;28;20040;-86
2022/03/02 02:29:29;;;;;;;9.52;2.53;;;;;;;5.65;100.00;102332.13;5093721;28;20396;-87
2022/03/02 02:31:59;;;;;;;11.75;2.80;;;;;;;5.53;100.00;102324.22;5090799;28;20070;-87
2022/03/02 02:34:26;;;;;;;14.38;3.38;;;;;;;5.54;100.00;102320.75;5092124;28;20054;-87
2022/03/02 02:36:53;;;;;;;9.52;2.40;;;;;;;5.59;100.00;102311.28;5089001;28;20048;-88
2022/03/02 02:39:20;;;;;;;8.05;2.45;;;;;;;5.63;100.00;102332.97;5084425;28;20055;-87
2022/03/02 02:41:46;;;;;;;9.52;2.50;;;;;;;5.51;100.00;102325.94;5090895;28;20452;-87
2022/03/02 02:44:13;;;;;;;9.60;2.95;;;;;;;5.39;100.00;102297.25;5092048;28;20044;-88
2022/03/02 02:46:44;;;;;;;9.20;2.45;;;;;;;5.46;100.00;102309.44;5091245;28;20040;-89
2022/03/02 02:49:11;;;;;;;13.60;3.53;;;;;;;5.57;100.00;102320.78;5091935;28;20402;-89
2022/03/02 02:51:38;;;;;;;9.55;2.53;;;;;;;5.52;100.00;102319.88;5092065;28;20048;-86
2022/03/02 02:54:05;;;;;;;10.07;2.78;;;;;;;5.48;100.00;102293.00;5092044;28;20067;-86
2022/03/02 02:56:32;;;;;;;10.27;2.92;;;;;;;5.35;100.00;102288.56;5091780;28;20508;-85
2022/03/02 02:58:58;;;;;;;11.23;3.05;;;;;;;5.32;100.00;102297.19;5091595;28;20067;-87
2022/03/02 03:01:25;;;;;;;8.02;2.55;;;;;;;5.40;100.00;102297.28;5083757;28;20123;-87
2022/03/02 03:03:52;;;;;;;10.48;2.90;;;;;;;5.54;100.00;102312.97;5108705;28;20048;-87
2022/03/02 03:06:19;;;;;;;14.18;4.47;;;;;;;5.31;100.00;102300.66;5093112;28;20047;-87
2022/03/02 03:08:46;;;;;;;18.15;2.67;;;;;;;5.31;100.00;102284.19;5091499;28;20050;-87
2022/03/02 03:11:13;;;;;;;12.00;2.90;;;;;;;5.28;100.00;102310.16;5106833;28;20470;-87
2022/03/02 03:13:39;;;;;;;9.68;2.92;;;;;;;5.12;100.00;102285.75;5091617;28;20048;-88
2022/03/02 03:16:07;;;;;;;8.63;2.17;;;;;;;5.55;100.00;102306.91;5091242;28;20087;-87
2022/03/02 03:18:34;;;;;;;10.60;2.88;;;;;;;5.43;100.00;102317.19;5093023;28;20138;-87
2022/03/02 03:21:01;;;;;;;11.60;3.00;;;;;;;5.42;100.00;102297.25;5097983;28;20464;-88
2022/03/02 03:23:28;;;;;;;9.73;2.70;;;;;;;5.52;100.00;102306.88;5087431;28;20055;-87
2022/03/02 03:25:55;;;;;;;7.82;2.25;;;;;;;5.49;100.00;102288.69;5091468;28;20052;-88
2022/03/02 03:28:22;;;;;;;12.88;3.05;;;;;;;5.21;100.00;102264.22;5091390;28;20062;-88
2022/03/02 03:30:48;;;;;;;10.70;3.80;;;;;;;5.16;100.00;102265.88;5089577;28;20055;-87
2022/03/02 03:33:15;;;;;;;11.30;3.08;;;;;;;5.26;100.00;102291.94;5092294;28;20040;-87
2022/03/02 03:35:42;;;;;;;9.02;2.35;;;;;;;4.96;100.00;102245.78;5092445;28;20066;-87
2022/03/02 03:38:09;;;;;;;7.90;2.40;;;;;;;4.99;100.00;102232.81;5090766;28;20052;-87
2022/03/02 03:40:36;;;;;;;9.07;3.03;;;;;;;5.00;100.00;102252.75;5090231;28;20410;-88
2022/03/02 03:43:03;;;;;;;9.60;2.50;;;;;;;4.88;100.00;102224.94;5090494;28;20641;-87
2022/03/02 03:45:30;;;;;;;8.02;2.72;;;;;;;4.71;100.00;102239.47;5091309;28;20058;-88
2022/03/02 03:47:57;;;;;;;7.00;2.20;;;;;;;5.03;100.00;102283.03;5091791;28;20493;-88
2022/03/02 03:50:25;;;;;;;9.82;2.53;;;;;;;4.61;100.00;102227.25;5090056;28;20048;-88
2022/03/02 03:52:52;;;;;;;10.82;3.03;;;;;;;4.61;100.00;102261.00;5090069;28;20052;-88
2022/03/02 03:55:19;;;;;;;13.50;3.50;;;;;;;4.28;100.00;102213.91;5091552;28;20633;-88
2022/03/02 03:57:46;;;;;;;8.80;2.65;;;;;;;4.54;100.00;102265.22;5092210;28;20478;-88
2022/03/02 04:00:17;;;;;;;9.43;2.47;;;;;;;4.53;100.00;102255.69;5090199;28;20058;-88
2022/03/02 04:02:45;;;;;;;10.63;3.10;;;;;;;4.60;100.00;102252.31;5071861;28;20049;-88
2022/03/02 04:05:12;;;;;;;8.75;2.70;;;;;;;4.43;100.00;102262.50;5071234;28;20509;-88
2022/03/02 04:07:44;;;;;;;9.07;2.50;;;;;;;4.53;100.00;102261.78;5083556;28;20048;-88
2022/03/02 04:10:13;;;;;;;10.43;2.55;;;;;;;4.50;100.00;102256.53;5102993;28;20119;-88
2022/03/02 04:12:40;;;;;;;8.32;2.45;;;;;;;4.29;100.00;102272.69;5090186;28;20194;-87
2022/03/02 04:15:07;;;;;;;13.10;2.55;;;;;;;4.20;100.00;102251.84;5107613;28;20469;-88
2022/03/02 04:17:34;;;;;;;11.00;3.72;;;;;;;4.19;100.00;102252.69;5091361;28;20889;-88
2022/03/02 04:20:01;;;;;;;9.88;2.67;;;;;;;4.06;100.00;102238.69;5106916;28;20052;-87
2022/03/02 04:22:28;;;;;;;12.80;3.13;;;;;;;4.13;100.00;102230.16;5071675;28;20395;-88
2022/03/02 04:24:55;;;;;;;10.43;2.95;;;;;;;4.08;100.00;102234.41;5070753;28;20494;-86
2022/03/02 04:27:22;;;;;;;7.75;2.28;;;;;;;3.77;100.00;102214.97;5071829;28;20518;-87
2022/03/02 04:29:49;;;;;;;10.52;2.95;;;;;;;4.02;100.00;102233.44;5070844;28;20406;-87
2022/03/02 04:32:16;;;;;;;7.93;2.70;;;;;;;4.33;100.00;102245.09;5074163;28;20040;-87
2022/03/02 04:34:42;;;;;;;8.18;2.75;;;;;;;4.08;100.00;102205.03;5090307;28;20052;-87
2022/03/02 04:37:09;;;;;;;11.52;3.17;;;;;;;4.12;100.00;102236.16;5083890;28;20401;-87
2022/03/02 04:39:37;;;;;;;10.48;2.95;;;;;;;3.95;100.00;102224.72;5098859;28;20102;-87
2022/03/02 04:42:04;;;;;;;11.93;2.97;;;;;;;4.24;100.00;102240.66;5106336;28;20048;-87
2022/03/02 04:44:31;;;;;;;9.77;2.80;;;;;;;4.10;100.00;102216.28;5107115;28;20127;-87
2022/03/02 04:46:58;;;;;;;11.57;3.42;;;;;;;4.06;100.00;102198.94;5107856;28;20055;-88
2022/03/02 04:49:24;;;;;;;12.15;3.25;;;;;;;3.96;100.00;102214.34;5090398;28;20044;-88
2022/03/02 04:51:51;;;;;;;10.10;2.75;;;;;;;3.92;100.00;102214.31;5088279;28;20046;-88
2022/03/02 04:57:05;;;;;;;8.10;2.58;;;;;;;4.10;100.00;102234.41;5091554;28;20055;-88
2022/03/02 04:59:32;;;;;;;7.82;2.40;;;;;;;4.25;100.00;102241.50;5106735;28;20052;-88
2022/03/02 05:01:59;;;;;;;9.93;2.85;;;;;;;3.87;100.00;102205.59;5087784;28;20050;-88
2022/03/02 05:04:26;;;;;;;10.20;2.67;;;;;;;3.88;100.00;102233.25;5093841;28;20044;-88
2022/03/02 05:06:53;;;;;;;8.52;2.78;;;;;;;3.74;100.00;102204.56;5093953;28;20374;-88
2022/03/02 05:09:20;;;;;;;9.05;3.45;;;;;;;3.86;100.00;102219.41;5093804;28;20056;-88
2022/03/02 05:11:47;;;;;;;9.27;3.33;;;;;;;3.78;100.00;102208.94;5080102;28;20389;-88
2022/03/02 05:14:14;;;;;;;14.45;2.88;;;;;;;3.62;100.00;102215.63;5090301;28;20055;-88
2022/03/02 05:16:41;;;;;;;10.60;2.53;;;;;;;3.55;100.00;102196.50;5089249;28;20044;-89
2022/03/02 05:19:08;;;;;;;10.65;2.80;;;;;;;3.85;100.00;102210.75;5093764;28;20047;-88
2022/03/02 05:21:35;;;;;;;7.88;2.30;;;;;;;3.40;100.00;102135.03;5092382;28;20060;-89
2022/03/02 05:24:02;;;;;;;14.57;2.92;;;;;;;3.60;100.00;102194.00;5093417;28;20059;-89
2022/03/02 05:26:28;;;;;;;6.40;2.40;;;;;;;3.63;100.00;102169.84;5110045;28;20427;-88
2022/03/02 05:28:55;;;;;;;10.13;2.70;;;;;;;3.53;100.00;102145.56;5093652;28;20054;-89
2022/03/02 05:31:24;;;;;;;10.40;2.55;;;;;;;3.41;100.00;102135.88;5109450;28;20753;-89
2022/03/02 05:33:51;;;;;;;9.75;2.63;;;;;;;3.64;100.00;102161.25;5093438;28;20044;-89
2022/03/02 05:36:23;;;;;;;8.73;3.03;;;;;;;3.73;100.00;102193.31;5093351;28;20131;-88
2022/03/02 05:38:51;;;;;;;10.52;3.65;;;;;;;3.92;100.00;102186.66;5094920;28;20054;-89
2022/03/02 05:41:19;;;;;;;10.27;2.30;;;;;;;3.85;100.00;102192.63;5092263;28;20512;-88
2022/03/02 05:43:46;;;;;;;12.88;2.53;;;;;;;3.69;100.00;102203.63;5092664;28;20070;-88
2022/03/02 05:46:13;;;;;;;12.05;2.38;;;;;;;3.75;100.00;102180.38;5109716;28;20058;-89
2022/03/02 05:48:40;;;;;;;7.15;2.05;;;;;;;3.58;100.00;102170.66;5093258;28;20085;-89
2022/03/02 05:51:07;;;;;;;13.93;4.10;;;;;;;3.54;100.00;102155.06;5091385;28;20067;-88
2022/03/02 05:53:34;;;;;;;8.02;2.38;;;;;;;3.57;100.00;102162.88;5094163;28;20048;-88
2022/03/02 05:56:00;;;;;;;13.50;3.08;;;;;;;3.58;100.00;102183.63;5093520;28;20047;-88
2022/03/02 05:58:30;;;;;;;8.50;2.30;;;;;;;3.53;100.00;102187.00;5092145;28;20148;-86
2022/03/02 06:00:59;;;;;;;10.40;2.40;;;;;;;3.22;100.00;102151.16;5083661;28;20045;-89
2022/03/02 06:03:28;;;;;;;10.57;3.05;;;;;;;3.45;100.00;102197.22;5093878;28;20768;-88
2022/03/02 06:05:56;;;;;;;10.98;2.53;;;;;;;3.46;100.00;102195.53;5092923;28;20052;-88
2022/03/02 06:08:24;;;;;;;11.60;2.92;;;;;;;3.48;100.00;102175.69;5092803;28;20142;-88
2022/03/02 06:10:51;;;;;;;8.90;2.80;;;;;;;3.56;100.00;102172.38;5108393;28;20405;-88
2022/03/02 06:13:18;;;;;;;9.75;3.88;;;;;;;3.58;100.00;102193.97;5092089;28;20058;-88
2022/03/02 06:15:45;;;;;;;7.25;2.72;;;;;;;3.58;100.00;102191.38;5092722;28;20052;-88
2022/03/02 06:18:12;;;;;;;13.25;3.30;;;;;;;3.51;100.00;102184.38;5093309;28;20052;-88
2022/03/02 06:20:42;;;;;;;7.60;2.53;;;;;;;3.55;100.00;102172.34;5092670;28;20050;-89
2022/03/02 06:23:09;;;;;;;15.95;4.40;;;;;;;3.43;100.00;102180.78;5092351;28;20131;-88
2022/03/02 06:25:36;;;;;;;13.00;2.92;;;;;;;3.36;100.00;102156.53;5092063;28;20495;-87
2022/03/02 06:28:03;;;;;;;8.25;3.00;;;;;;;3.63;100.00;102187.97;5091741;28;20051;-88
2022/03/02 06:30:29;;;;;;;11.60;2.85;;;;;;;3.45;100.00;102150.59;5107920;28;20050;-88
2022/03/02 06:32:56;;;;;;;10.80;2.88;;;;;;;3.82;100.00;102202.06;5090033;28;20131;-88
2022/03/02 06:35:23;;;;;;;10.32;3.45;;;;;;;3.40;100.00;102137.63;5093052;28;20056;-88
2022/03/02 06:37:50;;;;;;;11.73;3.10;;;;;;;3.79;100.00;102193.41;5092102;28;20051;-88
2022/03/02 06:40:17;;;;;;;13.35;3.38;;;;;;;3.84;100.00;102209.00;5091053;28;20044;-88
2022/03/02 06:42:47;;;;;;;12.48;3.30;;;;;;;3.72;100.00;102214.00;5092365;28;20070;-88
2022/03/02 06:45:24;;;;;;;10.20;2.92;;;;;;;3.61;100.00;102160.34;5108101;28;20044;-89
2022/03/02 06:48:03;;;;;;;10.63;3.95;;;;;;;3.87;100.00;102205.59;5091324;28;20559;-87
2022/03/02 06:50:36;;;;;;;8.80;2.78;;;;;;;4.12;100.00;102189.50;5090404;28;20043;-88
2022/03/02 06:53:11;;;;;;;14.30;3.22;;;;;;;3.99;100.00;102190.22;5084049;28;20059;-88
2022/03/02 06:55:44;;;;;;;12.25;3.75;;;;;;;3.93;100.00;102190.13;5106211;28;20558;-89
2022/03/02 06:58:14;;;;;;;12.05;3.33;;;;;;;4.03;100.00;102210.13;5090651;28;20062;-89
2022/03/02 07:00:53;;;;;;;10.85;3.17;;;;;;;3.89;100.00;102204.75;5101813;28;20047;-90
2022/03/02 07:03:26;;;;;;;11.80;3.67;;;;;;;3.98;100.00;102211.78;5102262;28;20475;-87
2022/03/02 07:05:54;;;;;;;12.80;3.70;;;;;;;4.09;100.00;102217.13;5107359;28;20054;-90
2022/03/02 07:08:24;;;;;;;17.33;3.53;;;;;;;4.05;100.00;102204.97;5091660;28;20482;-91
2022/03/02 07:10:51;;;;;;;11.98;2.90;;;;;;;4.19;100.00;102206.88;5089721;28;20040;-89
2022/03/02 07:13:18;;;;;;;13.00;4.63;;;;;;;3.61;100.00;102211.28;5090817;28;20059;-88
2022/03/02 07:15:46;;;;;;;20.15;4.05;;;;;;;4.07;100.00;102214.53;5107803;28;20044;-90
2022/03/02 07:18:15;;;;;;;13.60;3.42;;;;;;;4.19;100.00;102209.47;5091068;28;20048;-90
2022/03/02 07:20:46;;;;;;;16.40;4.32;;;;;;;4.59;100.00;102216.00;5089986;28;20438;-90
2022/03/02 07:23:15;;;;;;;8.82;3.28;;;;;;;4.14;100.00;102168.78;5091120;28;20044;-90
2022/03/02 07:25:44;;;;;;;10.93;4.50;;;;;;;4.47;100.00;102206.34;5092247;28;20087;-90
2022/03/02 07:28:13;;;;;;;9.45;3.53;;;;;;;4.55;100.00;102204.69;5107044;28;20083;-89
2022/03/02 07:30:41;;;;;;;11.45;4.10;;;;;;;4.30;100.00;102169.84;5089586;28;20127;-90
2022/03/02 07:33:08;;;;;;;12.52;4.13;;;;;;;4.52;100.00;102176.16;5092133;28;20393;-90
2022/03/02 07:35:37;;;;;;;13.95;3.83;;;;;;;4.55;100.00;102203.00;5091037;28;20084;-89
2022/03/02 07:38:05;;;;;;;11.60;3.45;;;;;;;4.51;100.00;102174.41;5091156;28;20048;-89
2022/03/02 07:40:34;;;;;;;13.00;3.90;;;;;;;4.83;100.00;102195.47;5088419;28;20060;-86
2022/03/02 07:43:01;;;;;;;20.83;5.40;;;;;;;4.37;100.00;102141.41;5085283;28;20036;-88
2022/03/02 07:45:28;;;;;;;10.43;3.58;;;;;;;4.70;100.00;102140.00;5088303;28;20113;-88
2022/03/02 07:47:56;;;;;;;11.95;3.10;;;;;;;5.04;100.00;102175.75;5091873;28;20048;-89
2022/03/02 07:50:25;;;;;;;11.38;3.00;;;;;;;5.45;100.00;102178.69;5089564;28;20048;-89
2022/03/02 07:52:52;;;;;;;9.10;3.03;;;;;;;5.50;100.00;102173.50;5090755;28;20497;-89
2022/03/02 07:55:20;;;;;;;11.05;4.00;;;;;;;5.51;100.00;102180.44;5107483;28;20516;-88
2022/03/02 07:57:55;;;;;;;8.80;2.50;;;;;;;5.64;100.00;102164.06;5090137;28;20052;-88
2022/03/02 08:00:25;;;;;;;12.80;3.47;;;;;;;5.60;100.00;102159.72;5088252;28;20060;-87
2022/03/02 08:02:56;;;;;;;10.02;2.90;;;;;;;5.63;100.00;102153.66;5090405;28;20043;-88
2022/03/02 08:05:24;;;;;;;12.77;3.42;;;;;;;5.60;100.00;102169.25;5091415;28;20467;-86
2022/03/02 08:07:51;;;;;;;9.40;2.92;;;;;;;6.26;100.00;102131.41;5092898;28;20048;-89
2022/03/02 08:10:18;;;;;;;13.32;3.53;;;;;;;6.21;100.00;102160.88;5091004;28;20056;-89
2022/03/02 08:12:48;;;;;;;10.30;2.53;;;;;;;6.20;100.00;102130.56;5090476;28;20048;-90
2022/03/02 08:15:15;;;;;;;15.32;3.13;;;;;;;6.89;100.00;102166.22;5091459;28;20433;-90
2022/03/02 08:17:43;;;;;;;20.58;3.65;;;;;;;6.31;100.00;102162.66;5091074;28;20524;-89
2022/03/02 08:20:11;;;;;;;17.80;4.05;;;;;;;6.14;100.00;102144.38;5091272;28;20043;-89
2022/03/02 08:22:44;;;;;;;16.45;3.33;;;;;;;6.67;100.00;102160.13;5070372;28;20044;-88
2022/03/02 08:25:12;;;;;;;11.27;2.78;;;;;;;6.94;100.00;102135.84;5087180;28;20055;-88
2022/03/02 08:27:41;;;;;;;11.32;2.10;;;;;;;7.12;100.00;102146.28;5087094;28;20467;-88
2022/03/02 08:30:10;;;;;;;12.90;3.35;;;;;;;7.16;100.00;102149.75;5089846;28;20064;-89
2022/03/02 08:32:42;;;;;;;18.17;3.47;;;;;;;7.16;100.00;102102.84;5089682;28;20131;-88
2022/03/02 08:35:10;;;;;;;13.60;2.88;;;;;;;7.54;100.00;102123.63;5107485;28;20123;-88
2022/03/02 08:37:38;;;;;;;12.90;2.22;;;;;;;7.50;100.00;102134.91;5108375;28;20131;-88
2022/03/02 08:40:06;;;;;;;10.18;2.90;;;;;;;7.43;100.00;102114.94;5094104;28;20066;-88
2022/03/02 08:42:33;;;;;;;16.33;2.53;;;;;;;7.25;100.00;102152.34;5092841;28;20064;-87
2022/03/02 08:45:00;;;;;;;13.85;3.15;;;;;;;7.50;100.00;102136.66;5096044;28;20055;-88
2022/03/02 08:47:27;;;;;;;21.10;3.25;;;;;;;7.38;100.00;102099.34;5094064;28;20131;-88
2022/03/02 08:49:54;;;;;;;14.77;2.95;;;;;;;7.62;100.00;102105.34;5111244;28;20121;-87
2022/03/02 08:52:26;;;;;;;11.75;2.65;;;;;;;7.37;100.00;102128.88;5075894;28;20066;-88
2022/03/02 08:54:55;;;;;;;17.40;3.40;;;;;;;8.01;100.00;102110.41;5075622;28;20465;-89
2022/03/02 08:57:23;;;;;;;11.70;2.28;;;;;;;8.03;100.00;102125.16;5074332;28;20063;-88
2022/03/02 08:59:53;;;;;;;22.35;5.18;;;;;;;7.77;100.00;102112.22;5076232;28;20052;-89
2022/03/02 09:02:24;;;;;;;19.77;3.60;;;;;;;7.86;100.00;102109.59;5091940;28;20048;-87
2022/03/02 09:04:54;;;;;;;19.40;3.17;;;;;;;7.53;100.00;102108.84;5093685;28;20048;-87
2022/03/02 09:07:22;;;;;;;9.20;2.85;;;;;;;7.95;100.00;102117.38;5110624;28;20052;-87
2022/03/02 09:09:49;;;;;;;16.27;2.53;;;;;;;8.57;100.00;102113.56;5094292;28;20050;-88
2022/03/02 09:12:17;;;;;;;17.33;3.20;;;;;;;8.81;100.00;102122.97;5094201;28;20044;-88
2022/03/02 09:14:44;;;;;;;18.40;2.47;;;;;;;8.84;100.00;102107.28;5094989;28;20048;-88
2022/03/02 09:17:11;;;;;;;12.23;2.63;;;;;;;8.10;100.00;102106.00;5109924;28;20051;-87
2022/03/02 09:19:39;;;;;;;21.00;2.83;;;;;;;8.23;100.00;102113.75;5093260;28;20055;-87
2022/03/02 09:22:06;;;;;;;10.90;2.63;;;;;;;8.80;100.00;102116.88;5092132;28;20048;-87
2022/03/02 09:24:34;;;;;;;17.60;3.25;;;;;;;8.43;100.00;102116.25;5110204;28;20044;-87
2022/03/02 09:27:01;;;;;;;13.25;3.17;;;;;;;8.20;100.00;102098.09;5095379;28;20052;-87
2022/03/02 09:29:30;;;;;;;12.15;2.70;;;;;;;8.11;100.00;102128.63;5094691;28;20058;-86
2022/03/02 09:31:58;;;;;;;12.48;2.83;;;;;;;7.78;100.00;102051.41;5093471;28;20138;-84
2022/03/02 09:34:28;;;;;;;15.18;3.80;;;;;;;8.82;100.00;102104.69;5093796;28;20127;-87
2022/03/02 09:36:55;;;;;;;16.35;3.25;;;;;;;8.73;100.00;102099.53;5093048;28;20058;-88
2022/03/02 09:39:23;;;;;;;15.98;4.13;;;;;;;8.64;100.00;102108.31;5093939;28;20508;-88
2022/03/02 09:42:14;;;;;;;14.95;3.30;;;;;;;8.53;100.00;102107.50;5092914;28;20500;-88
2022/03/02 09:44:46;;;;;;;24.17;4.78;;;;;;;8.16;100.00;102107.69;5094010;28;20146;-88
2022/03/02 09:47:20;;;;;;;15.83;2.70;;;;;;;7.91;100.00;102094.78;5092155;28;20083;-90
2022/03/02 09:49:54;;;;;;;14.70;2.78;;;;;;;8.61;100.00;102102.25;5091935;28;20292;-89
2022/03/02 09:52:21;;;;;;;18.13;2.45;;;;;;;8.49;100.00;102109.25;5072977;28;20062;-89
2022/03/02 09:54:54;;;;;;;18.88;2.97;;;;;;;8.47;100.00;102095.38;5072872;28;20040;-89
2022/03/02 09:57:22;;;;;;;24.00;3.40;;;;;;;8.14;100.00;102093.78;5073177;28;20054;-88
2022/03/02 09:59:55;;;;;;;14.13;2.58;;;;;;;8.51;100.00;102104.91;5074360;28;20409;-89
2022/03/02 10:02:44;;;;;;;17.40;3.20;;;;;;;8.04;100.00;102100.81;5080769;28;20821;-88
2022/03/02 10:05:20;;;;;;;15.68;3.40;;;;;;;8.00;100.00;102086.03;5094243;28;20448;-88
2022/03/02 10:08:03;;;;;;;14.50;4.07;;;;;;;8.80;100.00;102095.09;5110212;28;20079;-89
2022/03/02 10:10:36;;;;;;;16.53;3.43;;;;;;;8.49;100.00;102092.75;5092176;28;20046;-87
2022/03/02 10:13:09;;;;;;;14.95;3.10;;;;;;;8.30;100.00;102099.78;5092228;28;20323;-87
2022/03/02 10:15:39;;;;;;;17.58;4.18;;;;;;;8.43;100.00;102101.50;5107237;28;20643;-89
2022/03/02 10:18:10;;;;;;;19.13;3.10;;;;;;;7.99;100.00;102064.31;5094413;28;20105;-89
2022/03/02 10:20:44;;;;;;;15.75;4.03;;;;;;;8.54;100.00;102098.81;5092229;28;20054;-89
2022/03/02 10:23:42;;;;;;;17.13;2.75;;;;;;;8.63;100.00;102090.03;5092248;28;20139;-89
2022/03/02 10:26:13;;;;;;;16.55;2.70;;;;;;;8.39;100.00;102091.91;5094046;28;20065;-92
2022/03/02 10:28:45;;;;;;;16.90;3.42;;;;;;;8.21;100.00;102086.81;5092444;28;20058;-89
2022/03/02 10:31:27;;;;;;;18.02;3.15;;;;;;;8.80;100.00;102082.03;5084644;28;20073;-92
2022/03/02 10:34:07;;;;;;;19.33;4.15;;;;;;;8.76;100.00;102078.59;5087688;28;20447;-90
2022/03/02 10:36:41;;;;;;;19.35;3.70;;;;;;;8.41;100.00;102058.84;5093585;28;20044;-90
2022/03/02 10:39:10;;;;;;;17.55;2.88;;;;;;;8.76;100.00;102035.97;5075856;28;20048;-90
2022/03/02 10:41:39;;;;;;;15.23;3.75;;;;;;;8.82;100.00;102080.28;5096436;28;20055;-89
2022/03/02 10:44:31;;;;;;;19.27;3.20;;;;;;;7.72;100.00;102023.63;5108504;28;20390;-90
2022/03/02 10:47:03;;;;;;;14.45;2.75;;;;;;;8.57;100.00;102084.84;5092394;28;20043;-90
2022/03/02 10:49:34;;;;;;;13.07;2.65;;;;;;;9.38;100.00;102073.63;5079876;28;20044;-90
2022/03/02 10:52:03;;;;;;;19.20;3.05;;;;;;;8.93;100.00;102070.63;5090380;28;20141;-89
2022/03/02 10:54:31;;;;;;;15.65;2.80;;;;;;;9.47;100.00;102070.03;5089174;28;20461;-90
2022/03/02 10:57:02;;;;;;;19.48;3.90;;;;;;;8.89;100.00;102063.72;5076647;28;20044;-91
2022/03/02 10:59:31;;;;;;;11.65;2.75;;;;;;;8.64;100.00;102057.81;5108425;28;20058;-91
2022/03/02 11:02:00;;;;;;;16.63;2.63;;;;;;;8.50;100.00;102024.00;5086624;28;20490;-90
2022/03/02 11:04:30;;;;;;;13.90;2.88;;;;;;;9.60;100.00;102063.81;5108597;28;20044;-90
2022/03/02 11:07:02;;;;;;;17.20;3.72;;;;;;;9.53;100.00;102032.53;5092141;28;20101;-90
2022/03/02 11:09:51;;;;;;;13.50;3.10;;;;;;;9.53;95.12;102032.53;5091623;28;20170;-90
2022/03/02 11:12:20;;;;;;;24.48;2.90;;;;;;;9.34;92.91;102042.34;5072753;28;20061;-89
2022/03/02 11:14:56;;;;;;;11.10;2.50;;;;;;;9.53;95.25;102053.44;5081235;28;20093;-90
2022/03/02 11:17:23;;;;;;;17.13;3.03;;;;;;;9.19;98.14;102027.66;5087974;28;20063;-90
2022/03/02 11:19:56;;;;;;;14.75;2.75;;;;;;;8.84;100.00;102032.41;5074395;28;20091;-88
2022/03/02 11:22:27;;;;;;;14.82;2.97;;;;;;;8.93;100.00;102041.88;5073425;28;20086;-88
2022/03/02 11:24:56;;;;;;;16.30;3.20;;;;;;;9.00;100.00;102035.72;5092428;28;20492;-88
2022/03/02 11:27:42;;;;;;;16.50;3.20;;;;;;;9.08;100.00;102035.63;5094655;28;20091;-89
2022/03/02 11:30:11;;;;;;;14.77;2.70;;;;;;;9.06;99.67;102027.81;5090845;28;20058;-89